createdAt,value
2017-05-20T16:10:03.163Z,56.50
2017-05-20T16:12:46.935Z,56.90
2017-05-20T16:15:16.136Z,56.50
2017-05-20T16:17:45.011Z,56.70
2017-05-20T16:20:13.896Z,56.90
2017-05-20T16:22:43.115Z,56.60
2017-05-20T16:25:12.028Z,56.80
2017-05-20T16:27:40.978Z,57.40
2017-05-20T16:30:10.165Z,57.50
2017-05-20T16:32:39.238Z,57.50
2017-05-20T16:35:08.715Z,57.60
2017-05-20T16:37:38.046Z,57.20
2017-05-20T16:40:06.933Z,57.30
2017-05-20T16:42:35.835Z,57.40
2017-05-20T16:45:05.001Z,57.20
2017-05-20T16:47:33.892Z,57.30
2017-05-20T16:50:02.772Z,57.00
2017-05-20T16:52:31.212Z,57.00
2017-05-20T16:55:00.102Z,58.00
2017-05-20T16:57:29.009Z,57.40
2017-05-20T16:59:58.199Z,58.00
2017-05-20T17:02:27.105Z,58.20
2017-05-20T17:04:55.993Z,58.30
2017-05-20T17:07:25.245Z,58.40
2017-05-20T17:09:53.376Z,58.30
2017-05-20T17:12:22.260Z,57.70
2017-05-20T17:14:51.484Z,58.50
2017-05-20T17:17:20.385Z,58.10
2017-05-20T17:19:49.294Z,57.90
2017-05-20T17:22:18.568Z,58.00
2017-05-20T17:24:46.708Z,58.00
2017-05-20T17:27:15.791Z,57.30
2017-05-20T17:29:44.975Z,57.60
2017-05-20T17:32:13.879Z,57.70
2017-05-20T17:34:42.772Z,57.50
2017-05-20T17:37:12.053Z,57.60
2017-05-20T17:39:40.936Z,57.40
2017-05-20T17:42:09.827Z,57.90
2017-05-20T17:44:38.297Z,57.90
2017-05-20T17:47:07.181Z,57.80
2017-05-20T17:49:36.065Z,56.90
2017-05-20T17:52:05.318Z,56.70
2017-05-20T17:54:34.210Z,56.80
2017-05-20T17:57:03.102Z,56.70
2017-05-20T17:59:32.309Z,56.20
2017-05-20T18:02:01.199Z,56.40
2017-05-20T18:04:30.081Z,57.10
2017-05-20T18:06:59.331Z,57.30
2017-05-20T18:09:28.962Z,57.80
2017-05-20T18:11:57.849Z,58.00
2017-05-20T18:14:27.083Z,58.10
2017-05-20T18:16:56.072Z,58.30
2017-05-20T18:19:24.952Z,58.30
2017-05-20T18:21:54.322Z,58.10
2017-05-20T18:24:23.327Z,58.30
2017-05-20T18:26:52.229Z,58.90
2017-05-20T18:29:21.537Z,59.00
2017-05-20T18:31:50.435Z,59.20
2017-05-20T18:34:19.336Z,59.30
2017-05-20T18:36:48.530Z,59.50
2017-05-20T18:39:17.423Z,59.40
2017-05-20T18:41:46.327Z,59.60
2017-05-20T18:44:15.616Z,59.90
2017-05-20T18:46:43.782Z,59.90
2017-05-20T18:49:12.682Z,60.40
2017-05-20T18:51:41.865Z,60.70
2017-05-20T18:54:10.759Z,61.00
2017-05-20T18:56:39.651Z,61.80
2017-05-20T18:59:08.914Z,62.40
2017-05-20T19:01:37.806Z,62.20
2017-05-20T19:04:06.793Z,63.20
2017-05-20T19:06:35.985Z,64.00
2017-05-20T19:09:04.881Z,64.20
2017-05-20T19:11:33.773Z,64.70
2017-05-20T19:14:03.013Z,65.00
2017-05-20T19:16:31.898Z,65.20
2017-05-20T19:19:00.879Z,65.80
2017-05-20T19:21:30.051Z,65.90
2017-05-20T19:23:58.973Z,66.20
2017-05-20T19:26:27.875Z,66.70
2017-05-20T19:28:57.168Z,66.40
2017-05-20T19:31:26.040Z,67.00
2017-05-20T19:33:54.951Z,67.20
2017-05-20T19:36:24.230Z,67.70
2017-05-20T19:38:53.148Z,68.00
2017-05-20T19:41:22.027Z,68.20
2017-05-20T19:43:51.230Z,68.60
2017-05-20T19:46:20.127Z,68.80
2017-05-20T19:48:49.001Z,69.20
2017-05-20T19:51:18.182Z,69.30
2017-05-20T19:53:47.168Z,69.70
2017-05-20T19:56:16.131Z,70.00
2017-05-20T19:58:45.437Z,70.20
2017-05-20T20:01:14.344Z,70.50
2017-05-20T20:03:43.325Z,70.70
2017-05-20T20:06:12.658Z,70.60
2017-05-20T20:08:41.637Z,70.70
2017-05-20T20:11:11.223Z,70.90
2017-05-20T20:13:40.421Z,70.80
2017-05-20T20:16:09.318Z,71.00
2017-05-20T20:18:38.202Z,70.90
2017-05-20T20:21:06.657Z,71.00
2017-05-20T20:23:35.584Z,71.80
2017-05-20T20:26:04.560Z,72.00
2017-05-20T20:28:34.589Z,72.10
2017-05-20T20:31:03.544Z,72.40
2017-05-20T20:33:33.034Z,72.50
2017-05-20T20:36:02.298Z,72.60
2017-05-20T20:38:31.328Z,72.70
2017-05-20T20:41:00.378Z,72.70
2017-05-20T20:43:28.825Z,72.70
2017-05-20T20:45:57.918Z,72.80
2017-05-20T20:48:26.820Z,73.00
2017-05-20T20:50:55.282Z,72.90
2017-05-20T20:53:25.274Z,73.20
2017-05-20T20:55:53.432Z,73.10
2017-05-20T20:58:22.709Z,73.50
2017-05-20T21:00:51.613Z,73.30
2017-05-20T21:03:20.538Z,73.90
2017-05-20T21:05:49.819Z,73.60
2017-05-20T21:08:18.023Z,73.50
2017-05-20T21:10:46.940Z,73.50
2017-05-20T21:13:16.140Z,73.70
2017-05-20T21:15:44.267Z,73.80
2017-05-20T21:18:13.484Z,74.00
2017-05-20T21:20:42.770Z,74.10
2017-05-20T21:23:10.905Z,74.10
2017-05-20T21:25:39.819Z,73.90
2017-05-20T21:28:09.000Z,73.90
2017-05-20T21:30:37.910Z,74.00
2017-05-20T21:33:06.925Z,73.90
2017-05-20T21:35:36.126Z,74.10
2017-05-20T21:38:04.246Z,74.00
2017-05-20T21:40:33.146Z,74.50
2017-05-20T21:43:02.348Z,75.00
2017-05-20T21:45:31.238Z,75.20
2017-05-20T21:48:00.136Z,75.60
2017-05-20T21:50:29.426Z,75.80
2017-05-20T21:52:58.347Z,75.80
2017-05-20T21:55:26.496Z,75.80
2017-05-20T21:57:55.711Z,76.10
2017-05-20T22:00:24.640Z,76.40
2017-05-20T22:02:54.148Z,76.90
2017-05-20T22:05:23.390Z,77.90
2017-05-20T22:07:52.304Z,76.40
2017-05-20T22:10:20.431Z,76.40
2017-05-20T22:12:49.693Z,76.50
2017-05-20T22:15:18.608Z,76.80
2017-05-20T22:17:47.518Z,77.00
2017-05-20T22:20:16.747Z,77.00
2017-05-20T22:22:44.885Z,77.00
2017-05-20T22:25:13.807Z,77.20
2017-05-20T22:27:43.025Z,77.40
2017-05-20T22:30:11.949Z,77.60
2017-05-20T22:32:40.901Z,77.80
2017-05-20T22:35:10.150Z,78.10
2017-05-20T22:37:39.061Z,78.20
2017-05-20T22:40:08.039Z,78.20
2017-05-20T22:42:37.252Z,78.40
2017-05-20T22:45:06.171Z,79.00
2017-05-20T22:47:34.353Z,79.00
2017-05-20T22:50:03.617Z,79.30
2017-05-20T22:52:32.563Z,79.30
2017-05-20T22:55:01.565Z,79.50
2017-05-20T22:57:30.844Z,79.80
2017-05-20T22:59:59.791Z,79.70
2017-05-20T23:02:28.720Z,79.80
2017-05-20T23:04:57.971Z,79.80
2017-05-20T23:07:26.870Z,79.70
2017-05-20T23:09:55.858Z,79.60
2017-05-20T23:12:25.053Z,79.30
2017-05-20T23:14:53.990Z,79.70
2017-05-20T23:17:22.910Z,79.80
2017-05-20T23:19:52.215Z,79.90
2017-05-20T23:22:21.118Z,80.20
2017-05-20T23:24:50.138Z,80.10
2017-05-20T23:27:19.458Z,80.00
2017-05-20T23:29:48.408Z,80.00
2017-05-20T23:32:17.539Z,79.70
2017-05-20T23:34:46.724Z,79.80
2017-05-20T23:37:15.746Z,79.90
2017-05-20T23:39:44.699Z,80.00
2017-05-20T23:42:13.999Z,79.70
2017-05-20T23:44:42.911Z,79.80
2017-05-20T23:47:11.805Z,80.30
2017-05-20T23:49:41.115Z,81.00
2017-05-20T23:52:10.022Z,80.00
2017-05-20T23:54:38.928Z,79.90
2017-05-20T23:57:08.314Z,80.20
2017-05-20T23:59:37.231Z,80.20
